Time;durP1;ratioP1;P1;durP2;ratioP2;P2;SDS_P1;SDS_P2;PMS_P1;PMS_P2;Temp;Humidity;BMP_temperature;BMP_pressure;BME280_temperature;BME280_humidity;BME280_pressure;Samples;Min_cycle;Max_cycle;Signal;HPM_P1;HPM_P2
2021/09/07 00:01:24;;;;;;;32.00;20.88;;;;;;;15.55;79.43;102556.09;5062972;28;20029;-60
2021/09/07 00:03:49;;;;;;;34.75;21.02;;;;;;;15.52;79.25;102553.47;5062933;28;20025;-61
2021/09/07 00:06:17;;;;;;;35.72;21.25;;;;;;;15.49;79.28;102555.19;5063542;28;20132;-61
2021/09/07 00:08:43;;;;;;;32.55;20.83;;;;;;;15.46;79.19;102556.06;5061423;28;20040;-60
2021/09/07 00:11:08;;;;;;;40.22;21.40;;;;;;;15.44;79.38;102556.94;5061922;28;20097;-60
2021/09/07 00:13:33;;;;;;;32.70;21.08;;;;;;;15.40;79.28;102553.38;5062763;28;20129;-59
2021/09/07 00:15:59;;;;;;;34.97;20.88;;;;;;;15.39;79.28;102548.97;5062958;28;20039;-59
2021/09/07 00:18:24;;;;;;;36.92;22.17;;;;;;;15.36;79.48;102544.53;5062213;28;20040;-60
2021/09/07 00:20:49;;;;;;;37.13;22.33;;;;;;;15.35;79.81;102544.56;5058934;28;20036;-58
2021/09/07 00:23:15;;;;;;;36.17;21.60;;;;;;;15.34;79.74;102551.59;5064232;28;20426;-60
2021/09/07 00:25:40;;;;;;;36.97;23.08;;;;;;;15.33;79.72;102549.84;5066793;28;20047;-60
2021/09/07 00:28:06;;;;;;;34.67;21.38;;;;;;;15.32;79.69;102545.41;5066582;28;20025;-60
2021/09/07 00:30:31;;;;;;;37.30;22.40;;;;;;;15.30;79.85;102541.84;5067034;28;20051;-60
2021/09/07 00:32:57;;;;;;;37.00;22.52;;;;;;;15.29;80.01;102540.09;5066763;28;20029;-59
2021/09/07 00:35:24;;;;;;;38.03;22.00;;;;;;;15.28;79.79;102538.31;5066579;28;20469;-61
2021/09/07 00:37:50;;;;;;;37.35;22.45;;;;;;;15.28;80.02;102540.09;5066763;28;20028;-60
2021/09/07 00:40:15;;;;;;;39.10;22.52;;;;;;;15.27;80.39;102539.19;5064929;28;20039;-60
2021/09/07 00:42:40;;;;;;;36.35;22.08;;;;;;;15.27;80.03;102540.94;5067363;28;20670;-59
2021/09/07 00:45:10;;;;;;;36.90;22.63;;;;;;;15.26;80.39;102534.78;5066754;28;20072;-60
2021/09/07 00:47:36;;;;;;;36.58;22.13;;;;;;;15.23;80.21;102526.78;5067285;28;20380;-60
2021/09/07 00:50:02;;;;;;;39.22;23.25;;;;;;;15.23;80.40;102536.50;5065585;28;20085;-60
2021/09/07 00:52:27;;;;;;;36.70;22.48;;;;;;;15.18;80.69;102526.78;5065440;28;20115;-60
2021/09/07 00:54:54;;;;;;;44.08;23.33;;;;;;;15.17;80.90;102526.78;5066285;28;20037;-60
2021/09/07 00:57:22;;;;;;;37.88;22.42;;;;;;;15.15;81.04;102528.53;5066348;28;20124;-60
2021/09/07 00:59:50;;;;;;;39.25;21.95;;;;;;;15.12;80.83;102528.50;5064947;28;20036;-60
2021/09/07 01:02:15;;;;;;;39.20;22.95;;;;;;;15.11;81.39;102538.22;5065276;28;20037;-59
2021/09/07 01:04:41;;;;;;;38.38;22.45;;;;;;;15.10;81.18;102524.97;5065397;28;20067;-59
2021/09/07 01:07:07;;;;;;;36.72;21.52;;;;;;;15.08;81.00;102522.28;5066479;28;20028;-61
2021/09/07 01:09:34;;;;;;;35.67;21.55;;;;;;;15.06;81.29;102518.75;5065713;28;20033;-60
2021/09/07 01:11:59;;;;;;;37.33;21.20;;;;;;;15.04;80.96;102520.50;5065617;28;20055;-60
2021/09/07 01:14:29;;;;;;;36.08;21.90;;;;;;;15.04;81.44;102520.50;5064662;28;20037;-60
2021/09/07 01:16:55;;;;;;;36.53;21.65;;;;;;;15.02;81.37;102517.84;5066249;28;20126;-61
2021/09/07 01:19:20;;;;;;;37.22;21.67;;;;;;;15.03;81.35;102518.75;5065407;28;20033;-61
2021/09/07 01:21:46;;;;;;;38.45;21.42;;;;;;;15.02;81.43;102516.97;5065616;28;20063;-60
2021/09/07 01:24:11;;;;;;;38.70;23.23;;;;;;;15.01;81.26;102518.75;5064328;28;20037;-59
2021/09/07 01:26:36;;;;;;;40.33;23.73;;;;;;;15.02;81.49;102514.31;5065910;28;20043;-58
2021/09/07 01:29:05;;;;;;;39.15;23.63;;;;;;;14.99;81.37;102509.03;5063937;28;20029;-60
2021/09/07 01:31:30;;;;;;;40.70;24.20;;;;;;;14.98;81.76;102509.88;5065623;28;20036;-60
2021/09/07 01:33:55;;;;;;;43.22;22.67;;;;;;;14.96;81.58;102511.63;5064700;28;20032;-60
2021/09/07 01:36:22;;;;;;;39.92;22.80;;;;;;;14.95;81.66;102507.22;5065036;28;20108;-60
2021/09/07 01:38:47;;;;;;;40.90;22.85;;;;;;;14.94;81.51;102514.28;5063817;28;20083;-60
2021/09/07 01:41:16;;;;;;;39.50;22.30;;;;;;;14.94;81.75;102510.75;5061892;28;20578;-60
2021/09/07 01:43:47;;;;;;;41.60;24.15;;;;;;;14.94;81.85;102508.09;5064042;28;20029;-59
2021/09/07 01:46:12;;;;;;;37.65;22.52;;;;;;;14.95;82.04;102507.22;5064615;28;20028;-60
2021/09/07 01:48:38;;;;;;;40.78;23.55;;;;;;;14.95;81.90;102507.22;5064865;28;20028;-60
2021/09/07 01:51:03;;;;;;;36.55;22.80;;;;;;;14.94;81.71;102505.47;5065240;28;20040;-59
2021/09/07 01:53:28;;;;;;;39.40;23.08;;;;;;;14.94;82.09;102505.47;5064365;28;20133;-60
2021/09/07 01:55:54;;;;;;;41.70;23.42;;;;;;;14.92;81.84;102510.72;5065800;28;20121;-59
2021/09/07 01:58:19;;;;;;;38.15;23.05;;;;;;;14.91;81.86;102511.59;5065299;28;20033;-59
2021/09/07 02:00:45;;;;;;;41.85;22.80;;;;;;;14.90;81.92;102506.31;5065263;28;20080;-60
2021/09/07 02:03:10;;;;;;;39.38;23.63;;;;;;;14.88;81.94;102508.94;5063376;28;20029;-59
2021/09/07 02:05:36;;;;;;;38.88;24.10;;;;;;;14.87;82.04;102506.28;5064726;28;20029;-60
2021/09/07 02:08:01;;;;;;;39.70;23.15;;;;;;;14.85;82.28;102513.31;5065746;28;20070;-59
2021/09/07 02:10:26;;;;;;;40.28;23.25;;;;;;;14.82;82.38;102514.19;5063066;28;20044;-60
2021/09/07 02:12:51;;;;;;;36.95;22.88;;;;;;;14.80;82.34;102519.47;5064878;28;20048;-59
2021/09/07 02:15:17;;;;;;;42.97;22.10;;;;;;;14.80;82.02;102519.47;5065038;28;20043;-59
2021/09/07 02:17:42;;;;;;;43.28;23.73;;;;;;;14.78;82.01;102510.66;5065742;28;20029;-60
2021/09/07 02:20:09;;;;;;;38.65;23.02;;;;;;;14.77;82.48;102515.91;5064297;28;20137;-59
2021/09/07 02:22:35;;;;;;;40.47;22.92;;;;;;;14.72;82.28;102510.56;5065474;28;20053;-60
2021/09/07 02:25:00;;;;;;;41.30;23.23;;;;;;;14.72;82.34;102507.94;5063941;28;20095;-60
2021/09/07 02:27:25;;;;;;;41.20;23.85;;;;;;;14.71;82.42;102503.53;5065476;28;20400;-59
2021/09/07 02:29:51;;;;;;;38.90;23.10;;;;;;;14.72;82.16;102499.13;5064180;28;20036;-60
2021/09/07 02:32:16;;;;;;;46.80;24.67;;;;;;;14.72;82.33;102504.41;5064192;28;20025;-60
2021/09/07 02:34:42;;;;;;;47.58;24.85;;;;;;;14.71;82.00;102505.28;5064678;28;20881;-60
2021/09/07 02:37:07;;;;;;;44.75;24.30;;;;;;;14.69;82.03;102507.00;5064460;28;20040;-60
2021/09/07 02:39:33;;;;;;;44.92;24.52;;;;;;;14.68;82.10;102506.13;5062815;28;20120;-60
2021/09/07 02:41:58;;;;;;;44.22;24.88;;;;;;;14.67;82.52;102507.03;5065014;28;20033;-60
2021/09/07 02:44:24;;;;;;;41.47;24.58;;;;;;;14.67;82.23;102511.41;5064887;28;20048;-59
2021/09/07 02:46:50;;;;;;;44.67;25.27;;;;;;;14.65;82.47;102507.88;5061741;28;20056;-61
2021/09/07 02:49:16;;;;;;;47.05;26.15;;;;;;;14.65;82.68;102507.88;5063850;28;20411;-60
2021/09/07 02:51:44;;;;;;;42.28;24.98;;;;;;;14.62;82.71;102506.09;5063858;28;20033;-60
2021/09/07 02:54:10;;;;;;;45.33;26.17;;;;;;;14.59;82.50;102500.78;5057757;28;20048;-60
2021/09/07 02:56:35;;;;;;;43.90;25.17;;;;;;;14.56;82.57;102498.97;5064542;28;20033;-60
2021/09/07 02:59:01;;;;;;;46.58;25.55;;;;;;;14.55;82.90;102506.88;5063962;28;20059;-60
2021/09/07 03:01:26;;;;;;;41.13;23.83;;;;;;;14.55;82.87;102499.81;5064104;28;20445;-60
2021/09/07 03:03:52;;;;;;;43.25;24.67;;;;;;;14.55;82.83;102497.19;5063720;28;20029;-60
2021/09/07 03:06:17;;;;;;;46.00;25.92;;;;;;;14.54;82.49;102495.44;5064053;28;20087;-59
2021/09/07 03:08:42;;;;;;;45.60;25.10;;;;;;;14.54;82.74;102494.53;5063251;28;20088;-59
2021/09/07 03:11:08;;;;;;;40.13;23.63;;;;;;;14.51;82.55;102487.44;5062614;28;20106;-60
2021/09/07 03:13:33;;;;;;;47.20;26.10;;;;;;;14.52;82.44;102496.28;5063441;28;20118;-60
2021/09/07 03:15:59;;;;;;;44.42;24.50;;;;;;;14.51;82.72;102490.09;5064002;28;20029;-59
2021/09/07 03:18:24;;;;;;;41.70;24.45;;;;;;;14.50;82.79;102484.78;5063967;28;20025;-60
2021/09/07 03:20:50;;;;;;;46.45;26.13;;;;;;;14.49;82.75;102480.38;5064362;28;20044;-59
2021/09/07 03:23:15;;;;;;;49.72;26.88;;;;;;;14.49;82.60;102480.38;5063948;28;20041;-61
2021/09/07 03:25:41;;;;;;;51.17;27.50;;;;;;;14.47;82.87;102485.66;5063800;28;20025;-60
2021/09/07 03:28:07;;;;;;;47.33;25.70;;;;;;;14.46;83.11;102486.56;5063433;28;20036;-59
2021/09/07 03:30:33;;;;;;;46.53;27.10;;;;;;;14.47;82.81;102479.50;5064075;28;20036;-60
2021/09/07 03:32:58;;;;;;;51.72;26.52;;;;;;;14.46;83.01;102485.63;5061941;28;20043;-60
2021/09/07 03:35:24;;;;;;;46.60;26.15;;;;;;;14.45;83.26;102486.53;5063370;28;20029;-60
2021/09/07 03:37:49;;;;;;;49.58;26.98;;;;;;;14.43;83.11;102484.75;5064192;28;20049;-59
2021/09/07 03:40:14;;;;;;;51.58;25.60;;;;;;;14.43;83.68;102489.16;5060697;28;20032;-59
2021/09/07 03:42:40;;;;;;;41.88;25.38;;;;;;;14.46;83.38;102490.94;5063081;28;20475;-60
2021/09/07 03:45:08;;;;;;;47.38;26.42;;;;;;;14.48;83.31;102489.19;5063207;28;20092;-60
2021/09/07 03:47:34;;;;;;;44.05;25.48;;;;;;;14.47;83.23;102492.72;5063045;28;20036;-60
2021/09/07 03:50:00;;;;;;;44.60;25.10;;;;;;;14.49;83.33;102490.97;5064045;28;20029;-59
2021/09/07 03:52:25;;;;;;;44.60;25.45;;;;;;;14.51;83.30;102487.44;5063214;28;20025;-59
2021/09/07 03:54:50;;;;;;;42.13;24.77;;;;;;;14.55;83.24;102491.00;5062332;28;20095;-59
2021/09/07 03:57:16;;;;;;;44.83;25.92;;;;;;;14.57;83.43;102491.94;5064526;28;20047;-59
2021/09/07 03:59:41;;;;;;;45.00;25.35;;;;;;;14.60;83.19;102490.22;5063076;28;20025;-59
2021/09/07 04:02:06;;;;;;;44.05;24.83;;;;;;;14.61;83.27;102486.72;5063706;28;20096;-59
2021/09/07 04:04:32;;;;;;;41.55;24.42;;;;;;;14.62;83.38;102483.16;5062472;28;20052;-61
2021/09/07 04:06:58;;;;;;;43.90;25.02;;;;;;;14.63;83.43;102484.06;5063346;28;20037;-59
2021/09/07 04:09:23;;;;;;;45.30;26.00;;;;;;;14.64;83.13;102488.47;5063201;28;20074;-60
2021/09/07 04:11:50;;;;;;;44.78;25.63;;;;;;;14.63;83.15;102484.06;5063506;28;20048;-59
2021/09/07 04:14:15;;;;;;;44.65;24.70;;;;;;;14.62;83.26;102482.28;5063081;28;20049;-59
2021/09/07 04:16:41;;;;;;;49.83;26.15;;;;;;;14.59;82.90;102476.97;5063174;28;20028;-60
2021/09/07 04:19:06;;;;;;;46.08;25.73;;;;;;;14.58;83.57;102475.22;5063037;28;20067;-60
2021/09/07 04:21:32;;;;;;;49.85;26.27;;;;;;;14.57;83.25;102476.06;5062859;28;20036;-59
2021/09/07 04:23:57;;;;;;;44.92;25.05;;;;;;;14.56;82.89;102484.88;5044727;28;20036;-61
2021/09/07 04:26:22;;;;;;;43.65;24.48;;;;;;;14.53;83.12;102482.19;5063224;28;20033;-60
2021/09/07 04:28:48;;;;;;;47.72;25.30;;;;;;;14.50;83.32;102488.34;5063104;28;21403;-60
2021/09/07 04:31:13;;;;;;;44.60;26.63;;;;;;;14.49;82.99;102481.25;5063144;28;20044;-59
2021/09/07 04:33:39;;;;;;;43.83;24.45;;;;;;;14.48;83.29;102486.53;5062536;28;20033;-60
2021/09/07 04:36:04;;;;;;;43.80;25.65;;;;;;;14.46;83.37;102489.19;5062663;28;20070;-60
2021/09/07 04:38:29;;;;;;;48.10;26.33;;;;;;;14.46;83.50;102496.22;5062040;28;20065;-60
2021/09/07 04:40:55;;;;;;;47.20;25.60;;;;;;;14.46;83.30;102497.13;5063314;28;20037;-60
2021/09/07 04:43:20;;;;;;;49.22;27.20;;;;;;;14.47;83.42;102490.06;5062395;28;20055;-60
2021/09/07 04:45:46;;;;;;;46.92;26.50;;;;;;;14.49;83.34;102488.31;5062840;28;20021;-59
2021/09/07 04:48:11;;;;;;;44.60;26.45;;;;;;;14.49;83.39;102486.56;5063326;28;20025;-61
2021/09/07 04:50:36;;;;;;;47.45;25.77;;;;;;;14.49;83.26;102489.19;5062568;28;20033;-62
2021/09/07 04:53:02;;;;;;;51.30;27.85;;;;;;;14.48;83.31;102492.75;5063453;28;20021;-59
2021/09/07 04:55:27;;;;;;;49.42;26.58;;;;;;;14.50;83.45;102495.38;5062338;28;20025;-59
2021/09/07 04:57:53;;;;;;;47.45;27.35;;;;;;;14.50;83.67;102503.31;5062404;28;20020;-60
2021/09/07 05:00:18;;;;;;;48.30;26.92;;;;;;;14.51;83.36;102499.81;5062044;28;20049;-60
2021/09/07 05:02:44;;;;;;;50.58;26.63;;;;;;;14.53;83.81;102495.41;5062113;28;20032;-58
2021/09/07 05:05:10;;;;;;;46.40;26.02;;;;;;;14.56;83.71;102495.44;5062088;28;20035;-59
2021/09/07 05:07:35;;;;;;;50.70;27.63;;;;;;;14.58;83.71;102499.88;5062877;28;20449;-60
2021/09/07 05:10:02;;;;;;;49.58;29.25;;;;;;;14.63;83.43;102497.31;5061266;28;20037;-60
2021/09/07 05:12:28;;;;;;;50.65;26.35;;;;;;;14.68;83.64;102492.03;5066244;28;20080;-59
2021/09/07 05:14:54;;;;;;;47.78;27.02;;;;;;;14.70;83.52;102495.56;5065310;28;20048;-59
2021/09/07 05:17:19;;;;;;;51.25;27.50;;;;;;;14.74;83.77;102500.00;5066273;28;20507;-59
2021/09/07 05:19:45;;;;;;;50.00;28.23;;;;;;;14.78;83.84;102500.06;5065420;28;20040;-60
2021/09/07 05:22:10;;;;;;;50.38;28.05;;;;;;;14.84;84.07;102503.59;5066447;28;20071;-60
2021/09/07 05:24:35;;;;;;;51.90;27.60;;;;;;;14.87;83.61;102496.56;5064728;28;20036;-60
2021/09/07 05:27:01;;;;;;;51.08;28.52;;;;;;;14.92;83.70;102496.63;5060358;28;20029;-59
2021/09/07 05:29:26;;;;;;;53.88;29.38;;;;;;;14.98;83.82;102504.59;5065146;28;20098;-60
2021/09/07 05:31:52;;;;;;;52.22;29.77;;;;;;;15.01;83.51;102500.22;5053569;28;20021;-60
2021/09/07 05:34:17;;;;;;;52.13;28.58;;;;;;;15.06;83.42;102502.00;5063570;28;20036;-60
2021/09/07 05:36:43;;;;;;;50.78;29.23;;;;;;;15.11;83.47;102506.44;5062848;28;20056;-60
2021/09/07 05:39:08;;;;;;;52.15;28.95;;;;;;;15.14;83.52;102503.81;5061425;28;20053;-59
2021/09/07 05:41:34;;;;;;;49.92;28.88;;;;;;;15.18;83.25;102502.09;5058062;28;20025;-60
2021/09/07 05:43:59;;;;;;;50.80;28.90;;;;;;;15.21;83.04;102499.44;5065712;28;20033;-59
2021/09/07 05:46:25;;;;;;;53.33;29.65;;;;;;;15.25;83.43;102505.63;5065408;28;20021;-60
2021/09/07 05:48:50;;;;;;;54.15;28.73;;;;;;;15.28;83.45;102501.25;5064750;28;20064;-59
2021/09/07 05:51:16;;;;;;;52.15;28.65;;;;;;;15.31;83.22;102509.22;5064512;28;20090;-59
2021/09/07 05:53:41;;;;;;;47.80;27.85;;;;;;;15.36;83.30;102501.28;5062822;28;20037;-60
2021/09/07 05:56:08;;;;;;;51.13;28.65;;;;;;;15.41;82.87;102510.13;5063219;28;20108;-59
2021/09/07 05:58:33;;;;;;;54.08;29.25;;;;;;;15.43;83.27;102511.03;5061946;28;20102;-60
2021/09/07 06:00:59;;;;;;;50.35;28.13;;;;;;;15.48;83.28;102519.88;5062181;28;20067;-60
2021/09/07 06:03:24;;;;;;;53.05;29.88;;;;;;;15.53;83.34;102510.19;5064898;28;20032;-60
2021/09/07 06:05:50;;;;;;;51.50;27.90;;;;;;;15.57;82.74;102503.13;5060909;28;20032;-59
2021/09/07 06:08:15;;;;;;;52.30;29.75;;;;;;;15.63;82.90;102511.09;5065318;28;20112;-60
2021/09/07 06:10:41;;;;;;;50.05;29.13;;;;;;;15.67;82.63;102504.03;5064024;28;20041;-60
2021/09/07 06:13:06;;;;;;;46.72;27.63;;;;;;;15.71;82.73;102508.50;5063187;28;20047;-60
2021/09/07 06:15:32;;;;;;;57.13;29.40;;;;;;;15.78;82.14;102521.81;5053740;28;20025;-60
2021/09/07 06:17:58;;;;;;;50.50;28.85;;;;;;;15.85;81.37;102513.88;5063010;28;20021;-59
2021/09/07 06:20:23;;;;;;;49.90;28.83;;;;;;;15.90;80.47;102513.00;5064724;28;20055;-60
2021/09/07 06:22:49;;;;;;;50.92;28.30;;;;;;;15.97;81.10;102513.88;5065073;28;20174;-61
2021/09/07 06:25:15;;;;;;;48.92;28.52;;;;;;;16.01;81.51;102513.03;5063969;28;20033;-61
2021/09/07 06:27:41;;;;;;;48.70;29.17;;;;;;;16.07;81.30;102517.47;5061050;28;20574;-60
2021/09/07 06:30:07;;;;;;;48.65;27.50;;;;;;;16.10;81.35;102515.69;5064161;28;20116;-59
2021/09/07 06:32:32;;;;;;;49.25;27.85;;;;;;;16.13;81.82;102515.69;5064792;28;20086;-59
2021/09/07 06:35:01;;;;;;;48.65;29.35;;;;;;;16.17;80.11;102517.47;5061287;28;20033;-60
2021/09/07 06:37:27;;;;;;;52.33;28.02;;;;;;;16.22;80.67;102519.25;5060589;28;20673;-61
2021/09/07 06:39:52;;;;;;;47.33;29.15;;;;;;;16.25;80.81;102525.44;5061553;28;20601;-60
2021/09/07 06:42:17;;;;;;;47.55;28.00;;;;;;;16.29;80.84;102518.38;5060685;28;20082;-60
2021/09/07 06:44:43;;;;;;;50.35;28.60;;;;;;;16.34;79.68;102521.91;5062042;28;20064;-59
2021/09/07 06:47:08;;;;;;;47.35;28.85;;;;;;;16.40;79.91;102526.34;5063207;28;20048;-60
2021/09/07 06:49:33;;;;;;;49.47;27.98;;;;;;;16.42;79.81;102527.22;5064028;28;20025;-60
2021/09/07 06:51:59;;;;;;;51.00;29.52;;;;;;;16.47;81.12;102531.66;5061911;28;20064;-60
2021/09/07 06:54:24;;;;;;;53.65;29.77;;;;;;;16.55;80.48;102529.00;5063699;28;20045;-60
2021/09/07 06:56:49;;;;;;;51.00;29.50;;;;;;;16.70;79.84;102531.66;5064154;28;20079;-60
2021/09/07 06:59:15;;;;;;;50.53;29.70;;;;;;;16.87;79.25;102521.06;5059788;28;20032;-60
2021/09/07 07:01:40;;;;;;;45.92;26.98;;;;;;;17.03;78.69;102527.25;5060053;28;20029;-60
2021/09/07 07:04:06;;;;;;;46.65;27.90;;;;;;;17.18;78.76;102521.00;5064176;28;20104;-61
2021/09/07 07:06:32;;;;;;;42.97;26.42;;;;;;;17.36;78.25;102528.03;5060876;28;20029;-59
2021/09/07 07:08:57;;;;;;;53.50;32.65;;;;;;;17.53;77.30;102527.97;5064819;28;20036;-61
2021/09/07 07:11:22;;;;;;;43.50;26.27;;;;;;;17.72;75.84;102526.13;5061335;28;20120;-61
2021/09/07 07:13:48;;;;;;;48.67;27.50;;;;;;;17.89;73.60;102521.63;5061372;28;20037;-60
2021/09/07 07:16:13;;;;;;;50.50;27.23;;;;;;;18.04;73.57;102525.97;5063331;28;20057;-60
2021/09/07 07:18:39;;;;;;;42.90;25.13;;;;;;;18.19;72.46;102524.13;5063882;28;20021;-61
2021/09/07 07:21:04;;;;;;;49.15;26.80;;;;;;;18.33;73.13;102524.91;5061579;28;20029;-60
2021/09/07 07:23:29;;;;;;;42.97;25.83;;;;;;;18.45;71.66;102532.81;5063853;28;20087;-59
2021/09/07 07:25:55;;;;;;;48.70;26.35;;;;;;;18.56;71.47;102531.81;5059652;28;20021;-60
2021/09/07 07:28:21;;;;;;;46.10;25.98;;;;;;;18.66;71.24;102539.72;5062977;28;20760;-61
2021/09/07 07:30:46;;;;;;;44.22;26.98;;;;;;;18.78;70.66;102538.72;5063491;28;20052;-60
2021/09/07 07:33:12;;;;;;;39.70;25.35;;;;;;;18.91;71.50;102531.56;5061106;28;20041;-60
2021/09/07 07:35:37;;;;;;;38.40;24.25;;;;;;;19.04;69.47;102540.31;5060245;28;20029;-61
2021/09/07 07:38:03;;;;;;;39.40;24.73;;;;;;;19.16;68.06;102536.63;5057941;28;20017;-61
2021/09/07 07:40:28;;;;;;;41.95;25.38;;;;;;;19.28;68.80;102542.72;5062664;28;21579;-60
2021/09/07 07:42:53;;;;;;;41.47;25.40;;;;;;;19.39;70.73;102539.03;5063654;28;20025;-61
2021/09/07 07:45:19;;;;;;;39.80;24.10;;;;;;;19.50;68.31;102544.25;5063472;28;20041;-59
2021/09/07 07:47:44;;;;;;;46.38;24.48;;;;;;;19.62;66.93;102541.41;5061879;28;20047;-60
2021/09/07 07:50:10;;;;;;;49.63;25.60;;;;;;;19.71;64.68;102538.63;5062027;28;20033;-60
2021/09/07 07:52:36;;;;;;;35.28;22.67;;;;;;;19.85;63.69;102535.84;5063865;28;20070;-61
2021/09/07 07:55:02;;;;;;;43.88;23.45;;;;;;;19.95;63.77;102541.94;5062564;28;20076;-61
2021/09/07 07:57:27;;;;;;;37.42;22.90;;;;;;;20.03;64.17;102543.56;5063214;28;20033;-61
2021/09/07 07:59:52;;;;;;;37.85;23.15;;;;;;;20.16;64.48;102546.06;5060131;28;20024;-60
2021/09/07 08:02:18;;;;;;;32.72;21.70;;;;;;;20.32;65.44;102547.59;5062668;28;20533;-60
2021/09/07 08:04:43;;;;;;;28.30;18.85;;;;;;;20.48;63.17;102542.91;5062332;28;20676;-60
2021/09/07 08:07:09;;;;;;;33.55;21.25;;;;;;;20.65;63.52;102548.00;5062665;28;20037;-61
2021/09/07 08:09:34;;;;;;;33.75;20.83;;;;;;;20.79;61.40;102543.31;5060706;28;20043;-59
2021/09/07 08:12:00;;;;;;;28.67;18.35;;;;;;;20.97;62.33;102546.56;5060215;28;20059;-60
2021/09/07 08:14:26;;;;;;;26.92;19.83;;;;;;;21.02;60.93;102553.56;5062348;28;20041;-64
2021/09/07 08:16:51;;;;;;;31.17;19.98;;;;;;;21.00;58.96;102552.72;5062873;28;20056;-63
2021/09/07 08:19:17;;;;;;;34.35;20.10;;;;;;;20.93;59.63;102547.53;5059597;28;20017;-64
2021/09/07 08:21:42;;;;;;;31.52;20.08;;;;;;;20.86;60.58;102553.88;5059728;28;20025;-63
2021/09/07 08:24:08;;;;;;;31.33;20.30;;;;;;;20.87;60.88;102551.19;5062326;28;20043;-63
2021/09/07 08:26:33;;;;;;;31.05;19.23;;;;;;;20.88;59.99;102547.59;5060025;28;20025;-63
2021/09/07 08:28:59;;;;;;;32.00;20.70;;;;;;;20.93;58.73;102550.19;5063246;28;20032;-63
2021/09/07 08:31:24;;;;;;;32.30;20.00;;;;;;;21.05;59.50;102549.09;5060774;28;20036;-63
2021/09/07 08:33:49;;;;;;;33.40;20.20;;;;;;;21.20;59.60;102546.13;5062372;28;20040;-65
2021/09/07 08:36:15;;;;;;;32.38;19.33;;;;;;;21.31;58.27;102538.78;5058506;28;20051;-64
2021/09/07 08:38:40;;;;;;;28.88;18.85;;;;;;;21.36;57.65;102534.22;5061474;28;20071;-63
2021/09/07 08:41:06;;;;;;;31.30;18.83;;;;;;;21.37;57.74;102535.97;5060474;28;20082;-63
2021/09/07 08:43:31;;;;;;;29.05;17.38;;;;;;;21.34;57.92;102537.81;5060850;28;20029;-63
2021/09/07 08:45:58;;;;;;;29.83;18.55;;;;;;;21.25;56.55;102543.34;5065609;28;20365;-62
2021/09/07 08:48:25;;;;;;;26.67;18.13;;;;;;;21.19;57.31;102545.25;5065759;28;20036;-63
2021/09/07 08:50:54;;;;;;;26.58;16.75;;;;;;;21.23;58.99;102548.75;5066321;28;20159;-64
2021/09/07 08:53:21;;;;;;;25.65;16.17;;;;;;;21.31;58.52;102538.78;5060361;28;20032;-65
2021/09/07 08:55:46;;;;;;;24.80;16.20;;;;;;;21.44;57.34;102539.44;5065542;28;20051;-64
2021/09/07 08:58:12;;;;;;;26.95;16.33;;;;;;;21.63;57.68;102536.41;5065250;28;20025;-64
2021/09/07 09:00:37;;;;;;;22.33;15.40;;;;;;;21.74;55.57;102534.38;5065079;28;20025;-63
2021/09/07 09:03:12;;;;;;;22.27;14.45;;;;;;;21.92;57.00;102533.94;5066489;28;20574;-64
2021/09/07 09:05:46;;;;;;;29.98;16.67;;;;;;;22.01;54.72;102540.88;5066857;28;20044;-63
2021/09/07 09:08:13;;;;;;;24.25;15.68;;;;;;;22.11;56.06;102536.19;5065951;28;20029;-64
2021/09/07 09:10:40;;;;;;;28.15;16.00;;;;;;;22.16;54.33;102532.50;5064927;28;20027;-63
2021/09/07 09:13:09;;;;;;;26.67;16.83;;;;;;;22.17;52.30;102528.03;5066106;28;20037;-65
2021/09/07 09:15:35;;;;;;;23.88;16.30;;;;;;;22.20;53.23;102530.63;5066169;28;20029;-63
2021/09/07 09:18:11;;;;;;;22.08;15.27;;;;;;;22.31;54.66;102528.63;5061597;28;20087;-65
2021/09/07 09:20:39;;;;;;;26.08;16.00;;;;;;;22.39;52.96;102528.44;5064751;28;20116;-63
2021/09/07 09:23:07;;;;;;;27.75;16.83;;;;;;;22.53;53.00;102530.75;5065912;28;20025;-63
2021/09/07 09:25:40;;;;;;;27.15;16.45;;;;;;;22.61;52.11;102526.09;5062994;28;20024;-63
2021/09/07 09:28:09;;;;;;;24.75;14.73;;;;;;;22.73;51.93;102524.91;5065345;28;20037;-63
2021/09/07 09:30:38;;;;;;;30.10;16.40;;;;;;;22.78;51.79;102534.56;5065534;28;20097;-62
2021/09/07 09:33:05;;;;;;;26.60;16.67;;;;;;;22.81;50.78;102527.38;5065899;28;20033;-63
2021/09/07 09:35:32;;;;;;;26.88;16.50;;;;;;;22.88;50.25;102532.53;5063364;28;20096;-63
2021/09/07 09:38:00;;;;;;;24.75;16.80;;;;;;;22.89;51.03;102528.94;5065710;28;20088;-63
2021/09/07 09:40:28;;;;;;;25.80;17.00;;;;;;;22.89;51.21;102533.41;5064124;28;20025;-63
2021/09/07 09:42:54;;;;;;;28.60;16.17;;;;;;;22.96;49.85;102535.88;5062802;28;20059;-63
2021/09/07 09:45:28;;;;;;;27.10;16.50;;;;;;;23.03;51.49;102525.91;5063313;28;20033;-63
2021/09/07 09:47:55;;;;;;;28.92;15.82;;;;;;;23.13;50.36;102530.09;5063807;28;20021;-64
2021/09/07 09:50:22;;;;;;;31.95;16.67;;;;;;;23.19;49.97;102523.66;5061570;28;20528;-63
2021/09/07 09:52:49;;;;;;;25.60;15.43;;;;;;;23.20;50.49;102517.41;5063049;28;20028;-63
2021/09/07 09:55:16;;;;;;;22.33;13.90;;;;;;;23.24;50.48;102513.69;5061280;28;20036;-63
2021/09/07 09:57:42;;;;;;;22.25;15.88;;;;;;;23.24;48.74;102510.16;5057896;28;20028;-63
2021/09/07 10:00:13;;;;;;;23.98;15.43;;;;;;;23.23;48.67;102509.28;5062097;28;20044;-63
2021/09/07 10:02:39;;;;;;;23.60;15.10;;;;;;;23.28;48.63;102507.31;5063176;28;20051;-63
2021/09/07 10:05:05;;;;;;;25.75;14.93;;;;;;;23.30;47.41;102502.78;5063785;28;20033;-64
2021/09/07 10:07:32;;;;;;;24.92;14.82;;;;;;;23.39;46.81;102500.78;5063246;28;20025;-63
2021/09/07 10:09:59;;;;;;;23.77;15.32;;;;;;;23.36;47.00;102501.72;5062786;28;20025;-64
2021/09/07 10:12:35;;;;;;;22.63;16.08;;;;;;;23.32;46.85;102505.44;5062497;28;20044;-63
2021/09/07 10:20:13;;;;;;;21.02;13.93;;;;;;;23.47;47.90;102501.44;5065125;28;20109;-63
2021/09/07 10:25:53;;;;;;;26.73;15.30;;;;;;;23.43;46.55;102502.44;5061598;28;20087;-64
2021/09/07 10:28:42;;;;;;;22.92;16.17;;;;;;;23.42;46.18;102501.56;5057077;28;20060;-64
2021/09/07 10:31:18;;;;;;;21.10;14.63;;;;;;;23.50;46.33;102498.66;5063979;28;20029;-64
2021/09/07 10:33:45;;;;;;;20.38;13.02;;;;;;;23.59;46.98;102494.81;5064226;28;20033;-63
2021/09/07 10:36:15;;;;;;;19.75;11.48;;;;;;;23.70;48.42;102496.22;5062468;28;20476;-64
2021/09/07 10:38:51;;;;;;;23.35;13.60;;;;;;;23.74;46.77;102497.03;5062994;28;20033;-64
2021/09/07 10:41:28;;;;;;;24.85;14.82;;;;;;;23.69;45.91;102486.44;5062615;28;20472;-64
2021/09/07 10:44:07;;;;;;;17.17;13.00;;;;;;;23.66;46.73;102481.16;5063931;28;20024;-62
2021/09/07 10:46:58;;;;;;;17.38;13.48;;;;;;;23.68;46.91;102479.31;5060423;28;20037;-63
2021/09/07 10:49:37;;;;;;;23.17;13.15;;;;;;;23.73;47.67;102473.81;5058952;28;20396;-63
2021/09/07 10:52:09;;;;;;;18.83;13.32;;;;;;;23.70;46.59;102477.44;5063382;28;20051;-64
2021/09/07 10:54:49;;;;;;;17.08;12.50;;;;;;;23.71;46.69;102475.66;5063004;28;20033;-63
2021/09/07 10:57:43;;;;;;;17.20;11.90;;;;;;;23.75;47.18;102475.50;5058544;28;20112;-63
2021/09/07 11:00:21;;;;;;;16.15;11.95;;;;;;;23.77;47.38;102470.09;5063948;28;20455;-63
2021/09/07 11:02:55;;;;;;;17.52;13.05;;;;;;;23.75;48.22;102467.47;5064794;28;20021;-63
2021/09/07 11:05:23;;;;;;;18.45;14.10;;;;;;;23.72;47.19;102469.34;5064205;28;20037;-64
2021/09/07 11:07:52;;;;;;;18.77;11.97;;;;;;;23.78;46.65;102463.81;5061431;28;20032;-63
2021/09/07 11:10:17;;;;;;;20.88;12.10;;;;;;;23.78;46.98;102462.91;5063331;28;20343;-64
2021/09/07 11:13:01;;;;;;;16.70;11.70;;;;;;;23.71;46.02;102463.13;5064531;28;20041;-62
2021/09/07 11:15:29;;;;;;;20.65;13.32;;;;;;;23.67;46.53;102458.78;5060223;28;20043;-63